createdAt,value
2022-11-07T00:00:37.697Z,2.38
2022-11-07T00:03:04.651Z,1.95
2022-11-07T00:05:31.401Z,2.15
2022-11-07T00:07:57.927Z,1.88
2022-11-07T00:10:24.505Z,2.17
2022-11-07T00:12:51.050Z,2.22
2022-11-07T00:15:17.570Z,1.83
2022-11-07T00:17:44.221Z,2.70
2022-11-07T00:20:11.174Z,2.72
2022-11-07T00:22:37.698Z,2.28
2022-11-07T00:25:04.593Z,2.38
2022-11-07T00:27:31.238Z,2.15
2022-11-07T00:29:57.817Z,2.13
2022-11-07T00:32:24.398Z,2.35
2022-11-07T00:34:50.954Z,2.22
2022-11-07T00:37:17.469Z,2.00
2022-11-07T00:39:44.191Z,2.72
2022-11-07T00:42:10.697Z,1.83
2022-11-07T00:44:37.273Z,1.95
2022-11-07T00:47:03.926Z,2.92
2022-11-07T00:49:30.511Z,2.22
2022-11-07T00:51:57.066Z,2.42
2022-11-07T00:54:23.790Z,2.28
2022-11-07T00:56:50.314Z,1.98
2022-11-07T00:59:16.890Z,2.58
2022-11-07T01:01:43.648Z,2.10
2022-11-07T01:04:32.971Z,2.78
2022-11-07T01:06:59.795Z,2.30
2022-11-07T01:09:26.380Z,2.63
2022-11-07T01:11:53.203Z,3.10
2022-11-07T01:14:21.874Z,2.45
2022-11-07T01:16:49.134Z,2.40
2022-11-07T01:19:16.477Z,2.22
2022-11-07T01:21:43.636Z,2.03
2022-11-07T01:24:12.433Z,2.85
2022-11-07T01:26:40.404Z,2.58
2022-11-07T01:29:07.228Z,2.70
2022-11-07T01:31:34.073Z,2.08
2022-11-07T01:34:01.245Z,2.08
2022-11-07T01:36:28.257Z,2.20
2022-11-07T01:38:54.948Z,2.10
2022-11-07T01:41:25.655Z,2.40
2022-11-07T01:44:24.269Z,2.30
2022-11-07T01:46:55.011Z,2.05
2022-11-07T01:49:28.266Z,1.80
2022-11-07T01:51:57.655Z,2.53
2022-11-07T01:54:28.173Z,2.13
2022-11-07T01:56:58.496Z,2.28
2022-11-07T01:59:29.987Z,2.10
2022-11-07T02:01:56.771Z,2.88
2022-11-07T02:04:27.580Z,2.67
2022-11-07T02:07:13.212Z,2.50
2022-11-07T02:09:40.922Z,2.17
2022-11-07T02:12:07.802Z,2.83
2022-11-07T02:14:34.328Z,2.17
2022-11-07T02:17:01.517Z,2.33
2022-11-07T02:19:40.619Z,2.40
2022-11-07T02:22:19.125Z,2.15
2022-11-07T02:24:50.777Z,2.45
2022-11-07T02:27:21.016Z,2.70
2022-11-07T02:29:52.109Z,2.60
2022-11-07T02:32:18.678Z,2.83
2022-11-07T02:34:45.272Z,2.28
2022-11-07T02:37:22.472Z,2.35
2022-11-07T02:39:49.916Z,2.38
2022-11-07T02:42:17.190Z,2.13
2022-11-07T02:44:43.797Z,2.90
2022-11-07T02:47:10.669Z,2.95
2022-11-07T02:49:37.167Z,2.78
2022-11-07T02:52:03.979Z,2.58
2022-11-07T02:54:30.486Z,2.75
2022-11-07T02:56:57.009Z,2.67
2022-11-07T02:59:26.974Z,2.20
2022-11-07T03:01:54.162Z,2.22
2022-11-07T03:04:20.825Z,2.30
2022-11-07T03:06:47.362Z,2.45
2022-11-07T03:09:14.049Z,2.65
2022-11-07T03:11:40.576Z,2.20
2022-11-07T03:14:07.087Z,2.65
2022-11-07T03:16:33.659Z,2.80
2022-11-07T03:19:00.216Z,2.65
2022-11-07T03:21:26.759Z,2.05
2022-11-07T03:23:53.340Z,3.22
2022-11-07T03:26:20.986Z,2.58
2022-11-07T03:28:47.485Z,2.78
2022-11-07T03:31:14.001Z,2.53
2022-11-07T03:33:40.525Z,3.13
2022-11-07T03:36:07.352Z,2.63
2022-11-07T03:38:33.880Z,2.78
2022-11-07T03:41:00.405Z,2.45
2022-11-07T03:43:26.933Z,2.20
2022-11-07T03:45:53.426Z,3.03
2022-11-07T03:48:19.961Z,2.50
2022-11-07T03:50:46.527Z,2.33
2022-11-07T03:53:13.401Z,2.80
2022-11-07T03:55:42.297Z,2.50
2022-11-07T03:58:08.930Z,2.75
2022-11-07T04:00:35.515Z,2.95
2022-11-07T04:03:04.427Z,3.25
2022-11-07T04:05:31.112Z,2.83
2022-11-07T04:07:57.935Z,2.92
2022-11-07T04:10:24.408Z,2.55
2022-11-07T04:13:09.325Z,2.13
2022-11-07T04:15:57.187Z,2.33
2022-11-07T04:18:23.844Z,2.50
2022-11-07T04:20:50.347Z,2.17
2022-11-07T04:23:17.203Z,2.50
2022-11-07T04:26:02.566Z,2.63
2022-11-07T04:28:29.096Z,2.80
2022-11-07T04:30:55.805Z,1.83
2022-11-07T04:33:22.393Z,2.65
2022-11-07T04:35:48.890Z,2.85
2022-11-07T04:38:15.571Z,2.67
2022-11-07T04:40:42.064Z,2.30
2022-11-07T04:43:09.639Z,2.75
2022-11-07T04:45:39.361Z,2.78
2022-11-07T04:48:06.277Z,2.38
2022-11-07T04:50:32.821Z,2.20
2022-11-07T04:52:59.349Z,1.88
2022-11-07T04:55:27.832Z,2.67
2022-11-07T04:57:54.326Z,2.70
2022-11-07T05:00:21.318Z,2.55
2022-11-07T05:02:48.436Z,2.97
2022-11-07T05:05:15.881Z,3.60
2022-11-07T05:07:43.071Z,2.60
2022-11-07T05:10:17.632Z,2.55
2022-11-07T05:12:44.166Z,2.47
2022-11-07T05:15:10.939Z,2.50
2022-11-07T05:17:37.501Z,2.17
2022-11-07T05:20:04.381Z,2.08
2022-11-07T05:22:55.134Z,2.55
2022-11-07T05:25:22.730Z,2.53
2022-11-07T05:27:49.230Z,3.05
2022-11-07T05:30:15.801Z,2.92
2022-11-07T05:32:42.356Z,2.53
2022-11-07T05:35:09.324Z,3.42
2022-11-07T05:37:35.971Z,3.35
2022-11-07T05:40:02.520Z,3.05
2022-11-07T05:42:29.033Z,2.80
2022-11-07T05:44:55.600Z,2.80
2022-11-07T05:47:22.102Z,3.22
2022-11-07T05:49:48.616Z,2.88
2022-11-07T05:52:15.241Z,3.40
2022-11-07T05:54:41.773Z,2.50
2022-11-07T05:57:08.316Z,2.85
2022-11-07T05:59:34.925Z,2.90
2022-11-07T06:13:17.761Z,3.13
2022-11-07T06:16:14.632Z,2.83
2022-11-07T06:18:41.907Z,3.40
2022-11-07T06:21:08.619Z,2.58
2022-11-07T06:23:35.144Z,3.20
2022-11-07T06:26:02.210Z,2.85
2022-11-07T06:28:28.724Z,3.42
2022-11-07T06:31:00.072Z,3.50
2022-11-07T06:33:26.823Z,2.97
2022-11-07T06:35:53.343Z,3.05
2022-11-07T06:38:20.115Z,3.10
2022-11-07T06:40:46.679Z,2.78
2022-11-07T06:43:16.455Z,3.13
2022-11-07T06:45:45.047Z,2.70
2022-11-07T06:48:12.298Z,3.10
2022-11-07T06:50:39.124Z,3.38
2022-11-07T06:53:12.025Z,3.00
2022-11-07T06:55:39.299Z,3.40
2022-11-07T06:58:06.199Z,3.05
2022-11-07T07:00:34.508Z,3.00
2022-11-07T07:03:01.358Z,2.95
2022-11-07T07:05:28.100Z,3.50
2022-11-07T07:07:55.699Z,3.08
2022-11-07T07:10:22.525Z,3.42
2022-11-07T07:12:49.080Z,3.42
2022-11-07T07:15:15.593Z,3.22
2022-11-07T07:17:42.118Z,2.55
2022-11-07T07:20:09.603Z,3.22
2022-11-07T07:22:36.259Z,3.17
2022-11-07T07:25:02.779Z,2.90
2022-11-07T07:27:29.273Z,2.50
2022-11-07T07:29:55.812Z,2.78
2022-11-07T07:32:25.132Z,2.83
2022-11-07T07:34:52.244Z,2.60
2022-11-07T07:37:19.354Z,2.97
2022-11-07T07:39:45.930Z,2.90
2022-11-07T07:42:12.452Z,2.70
2022-11-07T07:44:39.032Z,2.70
2022-11-07T07:47:10.900Z,3.30
2022-11-07T07:49:38.055Z,3.00
2022-11-07T07:52:05.031Z,2.83
2022-11-07T07:54:31.671Z,2.58
2022-11-07T07:56:58.239Z,3.40
2022-11-07T07:59:24.858Z,2.70
2022-11-07T08:01:56.477Z,3.38
2022-11-07T08:04:23.639Z,2.60
2022-11-07T08:06:50.195Z,2.92
2022-11-07T08:09:16.685Z,3.45
2022-11-07T08:11:43.208Z,2.92
2022-11-07T08:14:11.568Z,3.35
2022-11-07T08:16:38.137Z,3.13
2022-11-07T08:19:04.777Z,2.95
2022-11-07T08:21:31.364Z,2.90
2022-11-07T08:23:57.949Z,3.20
2022-11-07T08:26:24.511Z,2.90
2022-11-07T08:28:53.921Z,3.17
2022-11-07T08:31:20.649Z,2.75
2022-11-07T08:33:47.261Z,2.60
2022-11-07T08:36:13.902Z,2.70
2022-11-07T08:38:40.436Z,2.95
2022-11-07T08:41:07.066Z,2.72
2022-11-07T08:43:33.696Z,3.05
2022-11-07T08:46:00.376Z,2.78
2022-11-07T08:48:26.913Z,2.80
2022-11-07T08:50:55.723Z,2.53
2022-11-07T08:53:23.698Z,3.33
2022-11-07T08:55:50.452Z,3.13
2022-11-07T08:58:17.546Z,2.50
2022-11-07T09:00:44.221Z,2.47
2022-11-07T09:05:58.678Z,2.83
2022-11-07T09:08:25.515Z,2.60
2022-11-07T09:10:52.068Z,2.22
2022-11-07T09:13:20.763Z,2.67
2022-11-07T09:15:51.061Z,2.50
2022-11-07T09:18:19.424Z,3.05
2022-11-07T09:20:46.004Z,3.67
2022-11-07T09:23:12.543Z,2.47
2022-11-07T09:25:39.093Z,2.38
2022-11-07T09:28:05.879Z,2.53
2022-11-07T09:30:32.931Z,2.08
2022-11-07T09:33:00.052Z,2.47
2022-11-07T09:35:27.241Z,2.60
2022-11-07T09:37:54.057Z,2.28
2022-11-07T09:40:40.738Z,2.65
2022-11-07T09:43:07.338Z,2.42
2022-11-07T09:45:51.658Z,2.35
2022-11-07T09:48:24.446Z,2.42
2022-11-07T09:50:51.739Z,2.45
2022-11-07T09:53:27.172Z,2.20
2022-11-07T09:55:57.788Z,2.60
2022-11-07T09:58:31.432Z,2.67
2022-11-07T10:01:02.922Z,3.00
2022-11-07T10:03:30.188Z,2.40
2022-11-07T10:06:34.258Z,2.53
2022-11-07T10:09:11.312Z,2.95
2022-11-07T10:11:53.439Z,2.75
2022-11-07T10:14:49.192Z,2.30
2022-11-07T10:17:42.570Z,2.72
2022-11-07T10:20:35.307Z,2.50
2022-11-07T10:23:17.860Z,2.30
2022-11-07T10:25:52.971Z,2.53
2022-11-07T10:28:20.774Z,3.15
2022-11-07T10:30:52.887Z,2.55
2022-11-07T10:36:32.543Z,2.45
2022-11-07T10:39:01.711Z,2.40
2022-11-07T10:41:31.235Z,2.78
2022-11-07T10:44:04.971Z,2.58
2022-11-07T10:46:41.915Z,2.65
2022-11-07T10:49:23.306Z,3.28
2022-11-07T10:51:50.763Z,2.50
2022-11-07T10:54:35.858Z,2.40
2022-11-07T10:57:15.554Z,2.55
2022-11-07T10:59:59.223Z,2.70
2022-11-07T11:02:30.198Z,2.22
2022-11-07T11:04:59.525Z,2.75
2022-11-07T11:07:37.072Z,2.47
2022-11-07T11:10:17.217Z,2.50
2022-11-07T11:12:47.016Z,2.28
2022-11-07T11:15:15.016Z,2.60
2022-11-07T11:17:42.072Z,2.55
2022-11-07T11:20:26.634Z,2.38
2022-11-07T11:22:53.922Z,2.10
2022-11-07T11:25:21.980Z,2.38
2022-11-07T11:28:10.072Z,2.00
2022-11-07T11:30:37.128Z,2.45
2022-11-07T11:33:13.821Z,2.35
2022-11-07T11:35:46.953Z,2.20
2022-11-07T11:38:22.863Z,2.33
2022-11-07T11:41:03.371Z,2.70
2022-11-07T11:43:59.031Z,2.08
2022-11-07T11:46:38.570Z,2.42
2022-11-07T11:49:32.405Z,2.25
2022-11-07T11:52:24.086Z,2.67
2022-11-07T11:54:52.780Z,2.50
2022-11-07T11:57:38.120Z,2.03
2022-11-07T12:00:23.044Z,1.98
2022-11-07T12:03:00.465Z,2.63
2022-11-07T12:05:40.877Z,2.60
2022-11-07T12:08:32.440Z,2.67
2022-11-07T12:10:59.939Z,2.30
2022-11-07T12:13:42.578Z,2.28
2022-11-07T12:16:09.550Z,2.63
2022-11-07T12:18:54.896Z,2.70
2022-11-07T12:21:48.634Z,2.50
2022-11-07T12:24:37.255Z,2.38
2022-11-07T12:27:28.137Z,2.40
2022-11-07T12:30:05.747Z,2.50
2022-11-07T12:32:38.120Z,2.75
2022-11-07T12:35:26.444Z,2.10
2022-11-07T12:37:59.019Z,2.30
2022-11-07T12:40:43.907Z,2.03
2022-11-07T12:43:18.741Z,2.08
2022-11-07T12:46:00.971Z,2.65
2022-11-07T12:48:39.698Z,2.30
2022-11-07T12:51:15.468Z,2.58
2022-11-07T12:54:16.225Z,2.42
2022-11-07T12:56:45.291Z,2.58
2022-11-07T12:59:21.026Z,2.40
2022-11-07T13:02:06.534Z,2.38
2022-11-07T13:04:38.905Z,2.70
2022-11-07T13:07:44.035Z,2.58
2022-11-07T13:10:10.480Z,2.53
2022-11-07T13:13:01.680Z,2.50
2022-11-07T13:15:31.870Z,2.42
2022-11-07T13:18:24.999Z,2.38
2022-11-07T13:21:02.861Z,2.42
2022-11-07T13:23:30.251Z,2.42
2022-11-07T13:26:25.946Z,2.30
2022-11-07T13:28:57.845Z,2.65
2022-11-07T13:31:40.443Z,2.65
2022-11-07T13:34:26.715Z,2.40
2022-11-07T13:37:01.111Z,2.13
2022-11-07T13:39:30.410Z,2.42
2022-11-07T13:41:59.530Z,2.58
2022-11-07T13:44:34.828Z,3.33
2022-11-07T13:47:05.283Z,2.63
2022-11-07T13:49:44.763Z,2.65
2022-11-07T13:52:19.507Z,2.38
2022-11-07T13:55:05.796Z,2.92
2022-11-07T13:57:40.340Z,3.05
2022-11-07T14:00:10.980Z,1.80
2022-11-07T14:02:37.725Z,2.53
2022-11-07T14:05:17.687Z,2.53
2022-11-07T14:08:16.872Z,1.90
2022-11-07T14:10:48.838Z,2.10
2022-11-07T14:13:41.336Z,2.78
2022-11-07T14:16:17.610Z,2.10
2022-11-07T14:18:56.759Z,2.42
2022-11-07T14:21:27.279Z,2.53
2022-11-07T14:23:54.041Z,2.63
2022-11-07T14:26:30.672Z,1.95
2022-11-07T14:28:57.969Z,2.08
2022-11-07T14:31:34.272Z,2.15
2022-11-07T14:34:03.742Z,1.73
2022-11-07T14:36:31.313Z,2.63
2022-11-07T14:39:05.185Z,2.28
2022-11-07T14:41:32.093Z,2.35
2022-11-07T14:44:03.891Z,2.20
2022-11-07T14:46:30.914Z,2.15
2022-11-07T14:48:57.824Z,1.75
2022-11-07T14:51:27.832Z,2.45
2022-11-07T14:54:04.372Z,2.33
2022-11-07T14:56:37.706Z,2.22
2022-11-07T14:59:04.806Z,2.10
2022-11-07T15:01:34.227Z,2.20
2022-11-07T15:04:05.536Z,2.40
2022-11-07T15:06:34.714Z,2.10
2022-11-07T15:09:05.539Z,2.15
2022-11-07T15:11:35.172Z,2.22
2022-11-07T15:14:04.121Z,2.20
2022-11-07T15:16:38.067Z,2.58
2022-11-07T15:19:08.856Z,2.70
2022-11-07T15:21:38.608Z,4.95
2022-11-07T15:24:47.403Z,2.35
2022-11-07T15:27:13.878Z,2.90
2022-11-07T15:29:53.644Z,1.85
2022-11-07T15:32:22.896Z,2.45
2022-11-07T15:37:38.629Z,2.70
2022-11-07T15:40:31.492Z,3.38
2022-11-07T15:42:58.298Z,2.60
2022-11-07T15:45:25.103Z,3.05
2022-11-07T15:47:51.934Z,3.28
2022-11-07T15:50:24.851Z,2.40
2022-11-07T15:52:52.889Z,2.80
2022-11-07T15:55:21.787Z,2.95
2022-11-07T15:57:51.646Z,2.33
2022-11-07T16:00:20.843Z,2.70
2022-11-07T16:02:47.973Z,2.83
2022-11-07T16:05:15.258Z,2.67
2022-11-07T16:07:43.420Z,2.40
2022-11-07T16:10:26.798Z,2.38
2022-11-07T16:12:54.089Z,2.60
2022-11-07T16:15:23.654Z,2.83
2022-11-07T16:17:50.513Z,2.85
2022-11-07T16:20:20.430Z,2.47
2022-11-07T16:22:48.200Z,2.25
2022-11-07T16:25:21.381Z,2.70
2022-11-07T16:27:59.127Z,3.17
2022-11-07T16:30:27.306Z,3.17
2022-11-07T16:32:53.819Z,2.42
2022-11-07T16:35:20.368Z,2.80
2022-11-07T16:37:47.081Z,2.75
2022-11-07T16:40:17.879Z,2.65
2022-11-07T16:42:45.036Z,3.00
2022-11-07T16:45:17.113Z,2.80
2022-11-07T16:50:16.838Z,3.22
2022-11-07T16:52:43.516Z,3.05
2022-11-07T16:55:19.796Z,2.72
2022-11-07T16:57:46.984Z,3.20
2022-11-07T17:00:18.832Z,3.08
2022-11-07T17:02:45.493Z,3.65
2022-11-07T17:05:12.794Z,3.30
2022-11-07T17:07:39.313Z,3.75
2022-11-07T17:10:06.517Z,3.42
2022-11-07T17:12:33.447Z,3.28
2022-11-07T17:15:00.044Z,3.80
2022-11-07T17:17:26.539Z,4.38
2022-11-07T17:19:53.055Z,4.10
2022-11-07T17:22:20.010Z,4.40
2022-11-07T17:24:47.275Z,4.00
2022-11-07T17:27:22.772Z,3.60
2022-11-07T17:29:50.278Z,3.92
2022-11-07T17:32:17.162Z,3.78
2022-11-07T17:34:44.130Z,3.45
2022-11-07T17:37:16.490Z,4.10
2022-11-07T17:39:45.992Z,3.50
2022-11-07T17:42:12.957Z,4.13
2022-11-07T17:44:40.080Z,3.67
2022-11-07T17:47:07.026Z,3.42
2022-11-07T17:49:33.655Z,3.72
2022-11-07T17:52:00.189Z,3.83
2022-11-07T17:54:29.449Z,3.58
2022-11-07T17:56:56.397Z,3.55
2022-11-07T17:59:23.398Z,6.00
2022-11-07T18:01:50.073Z,4.53
2022-11-07T18:04:16.734Z,3.72
2022-11-07T18:06:43.457Z,4.50
2022-11-07T18:09:14.314Z,4.15
2022-11-07T18:11:40.882Z,3.95
2022-11-07T18:14:07.813Z,4.10
2022-11-07T18:16:36.110Z,4.18
2022-11-07T18:19:04.331Z,3.67
2022-11-07T18:21:31.264Z,3.63
2022-11-07T18:23:58.172Z,4.18
2022-11-07T18:26:30.907Z,3.38
2022-11-07T18:29:02.108Z,3.28
2022-11-07T18:31:28.644Z,3.10
2022-11-07T18:34:00.420Z,3.28
2022-11-07T18:36:28.219Z,3.58
2022-11-07T18:38:54.741Z,2.78
2022-11-07T18:41:22.983Z,2.80
2022-11-07T18:43:50.176Z,2.47
2022-11-07T18:46:19.323Z,2.63
2022-11-07T18:48:46.673Z,2.00
2022-11-07T18:51:19.213Z,2.00
2022-11-07T18:53:46.028Z,2.40
2022-11-07T18:56:13.732Z,2.00
2022-11-07T18:58:42.465Z,1.85
2022-11-07T19:01:21.830Z,1.55
2022-11-07T19:03:48.732Z,2.83
2022-11-07T19:06:18.150Z,1.75
2022-11-07T19:08:47.756Z,1.77
2022-11-07T19:11:17.757Z,1.60
2022-11-07T19:13:47.906Z,2.10
2022-11-07T19:16:16.932Z,1.75
2022-11-07T19:18:49.085Z,1.70
2022-11-07T19:21:20.491Z,1.75
2022-11-07T19:23:48.396Z,2.10
2022-11-07T19:26:15.963Z,1.60
2022-11-07T19:28:42.511Z,2.00
2022-11-07T19:31:12.974Z,2.00
2022-11-07T19:33:41.431Z,1.95
2022-11-07T19:36:13.177Z,1.85
2022-11-07T19:38:39.741Z,2.03
2022-11-07T19:41:07.682Z,1.92
2022-11-07T19:43:34.825Z,2.60
2022-11-07T19:46:07.093Z,2.10
2022-11-07T19:48:33.749Z,2.30
2022-11-07T19:51:03.713Z,2.58
2022-11-07T19:53:30.233Z,2.38
2022-11-07T19:55:56.801Z,2.17
2022-11-07T19:58:23.476Z,2.05
2022-11-07T20:00:50.004Z,3.08
2022-11-07T20:03:16.983Z,2.10
2022-11-07T20:05:43.936Z,2.55
2022-11-07T20:08:10.491Z,2.40
2022-11-07T20:10:37.014Z,2.85
2022-11-07T20:13:03.520Z,2.63
2022-11-07T20:15:30.030Z,2.63
2022-11-07T20:17:56.569Z,2.70
2022-11-07T20:20:23.086Z,3.35
2022-11-07T20:22:49.673Z,2.92
2022-11-07T20:25:16.426Z,3.80
2022-11-07T20:27:42.962Z,3.85
2022-11-07T20:30:10.333Z,3.75
2022-11-07T20:32:37.048Z,4.00
2022-11-07T20:35:04.108Z,3.08
2022-11-07T20:37:31.005Z,3.70
2022-11-07T20:39:57.638Z,3.35
2022-11-07T20:42:24.177Z,3.38
2022-11-07T20:44:51.207Z,3.97
2022-11-07T20:47:18.020Z,2.97
2022-11-07T20:49:44.663Z,3.35
2022-11-07T20:52:11.334Z,3.40
2022-11-07T20:54:39.409Z,4.07
2022-11-07T20:57:06.076Z,5.53
2022-11-07T20:59:33.076Z,5.68
2022-11-07T21:02:03.387Z,5.53
2022-11-07T21:04:49.578Z,5.65
2022-11-07T21:07:19.709Z,3.63
2022-11-07T21:09:46.929Z,4.05
2022-11-07T21:12:14.359Z,4.00
2022-11-07T21:14:42.386Z,3.30
2022-11-07T21:17:09.731Z,3.80
2022-11-07T21:19:36.432Z,3.75
2022-11-07T21:22:04.166Z,3.65
2022-11-07T21:24:31.488Z,3.78
2022-11-07T21:26:58.086Z,4.00
2022-11-07T21:29:29.280Z,3.38
2022-11-07T21:31:56.802Z,4.22
2022-11-07T21:34:23.393Z,4.10
2022-11-07T21:36:49.888Z,4.10
2022-11-07T21:39:17.470Z,3.75
2022-11-07T21:41:44.099Z,3.70
2022-11-07T21:44:12.343Z,3.30
2022-11-07T21:46:38.924Z,3.40
2022-11-07T21:49:06.275Z,3.53
2022-11-07T21:51:34.698Z,2.97
2022-11-07T21:54:02.921Z,3.10
2022-11-07T21:56:40.049Z,3.60
2022-11-07T21:59:10.919Z,3.97
2022-11-07T22:01:39.742Z,3.83
2022-11-07T22:04:10.886Z,3.70
2022-11-07T22:06:44.209Z,4.40
2022-11-07T22:09:14.447Z,3.95
2022-11-07T22:11:41.205Z,3.92
2022-11-07T22:14:07.857Z,3.88
2022-11-07T22:16:34.651Z,3.63
2022-11-07T22:19:01.591Z,4.55
2022-11-07T22:21:28.459Z,4.20
2022-11-07T22:23:55.714Z,4.93
2022-11-07T22:26:25.213Z,4.55
2022-11-07T22:28:51.940Z,9.43
2022-11-07T22:31:23.054Z,11.57
2022-11-07T22:33:50.981Z,8.30
2022-11-07T22:36:18.068Z,3.80
2022-11-07T22:38:44.806Z,5.60
2022-11-07T22:41:17.208Z,7.25
2022-11-07T22:43:43.991Z,6.53
2022-11-07T22:46:16.885Z,4.63
2022-11-07T22:48:45.223Z,5.35
2022-11-07T22:51:14.613Z,4.88
2022-11-07T22:53:41.508Z,4.70
2022-11-07T22:56:18.956Z,5.68
2022-11-07T22:58:47.118Z,5.45
2022-11-07T23:01:19.857Z,4.63
2022-11-07T23:03:47.301Z,4.00
2022-11-07T23:06:14.788Z,3.75
2022-11-07T23:08:41.493Z,3.67
2022-11-07T23:11:44.888Z,4.20
2022-11-07T23:14:03.977Z,4.75
2022-11-07T23:16:36.214Z,5.85
2022-11-07T23:19:05.797Z,5.80
2022-11-07T23:21:33.121Z,6.45
2022-11-07T23:24:00.358Z,6.78
2022-11-07T23:26:33.848Z,7.95
2022-11-07T23:29:22.938Z,8.20
2022-11-07T23:31:50.979Z,8.20
2022-11-07T23:34:19.390Z,8.65
2022-11-07T23:36:46.329Z,7.68
2022-11-07T23:39:18.598Z,8.63
2022-11-07T23:41:46.004Z,7.40
2022-11-07T23:44:13.527Z,7.93
2022-11-07T23:46:59.816Z,7.72
2022-11-07T23:49:44.699Z,7.97
2022-11-07T23:52:11.938Z,8.35
2022-11-07T23:54:57.097Z,8.63
2022-11-07T23:57:23.611Z,8.55
